createdAt,value
2023-03-26T00:00:59.800Z,11.19
2023-03-26T00:02:01.585Z,10.03
2023-03-26T00:03:03.401Z,9.98
2023-03-26T00:04:05.160Z,11.16
2023-03-26T00:05:07.006Z,10.75
2023-03-26T00:06:08.952Z,11.70
2023-03-26T00:07:10.829Z,11.56
2023-03-26T00:08:12.621Z,10.81
2023-03-26T00:09:14.569Z,10.45
2023-03-26T00:10:16.388Z,10.48
2023-03-26T00:11:18.178Z,11.71
2023-03-26T00:12:20.037Z,10.39
2023-03-26T00:13:21.823Z,10.37
2023-03-26T00:14:23.646Z,10.41
2023-03-26T00:15:25.443Z,9.89
2023-03-26T00:16:27.299Z,10.08
2023-03-26T00:17:29.105Z,10.26
2023-03-26T00:18:30.899Z,10.99
2023-03-26T00:19:32.707Z,9.31
2023-03-26T00:20:34.518Z,10.14
2023-03-26T00:21:36.334Z,9.70
2023-03-26T00:22:38.176Z,9.10
2023-03-26T00:23:39.991Z,9.64
2023-03-26T00:24:41.794Z,9.51
2023-03-26T00:25:43.704Z,9.14
2023-03-26T00:26:45.497Z,9.08
2023-03-26T00:27:47.357Z,9.53
2023-03-26T00:28:49.159Z,8.75
2023-03-26T00:29:50.871Z,9.59
2023-03-26T00:30:52.740Z,9.50
2023-03-26T00:31:54.482Z,9.13
2023-03-26T00:32:56.362Z,8.91
2023-03-26T00:33:58.129Z,9.37
2023-03-26T00:34:59.939Z,9.03
2023-03-26T00:36:04.342Z,8.78
2023-03-26T00:37:05.360Z,8.35
2023-03-26T00:38:07.199Z,8.46
2023-03-26T00:39:08.996Z,8.16
2023-03-26T00:40:11.206Z,8.57
2023-03-26T00:41:13.002Z,8.82
2023-03-26T00:42:14.808Z,8.32
2023-03-26T00:43:16.651Z,8.70
2023-03-26T00:44:18.463Z,8.89
2023-03-26T00:45:20.246Z,8.97
2023-03-26T00:46:22.211Z,8.32
2023-03-26T00:47:24.024Z,8.35
2023-03-26T00:48:34.549Z,8.45
2023-03-26T00:49:29.451Z,8.54
2023-03-26T00:50:31.250Z,8.27
2023-03-26T00:51:33.050Z,8.39
2023-03-26T00:52:34.853Z,8.48
2023-03-26T00:53:36.713Z,7.96
2023-03-26T00:54:38.517Z,8.25
2023-03-26T00:55:40.313Z,7.81
2023-03-26T00:56:42.142Z,8.70
2023-03-26T00:57:43.909Z,8.31
2023-03-26T00:58:45.753Z,8.07
2023-03-26T00:59:47.567Z,8.54
2023-03-26T01:00:49.355Z,8.13
2023-03-26T01:01:51.210Z,8.01
2023-03-26T01:02:53.050Z,7.91
2023-03-26T01:04:06.751Z,8.48
2023-03-26T01:04:58.539Z,8.59
2023-03-26T01:06:00.320Z,8.30
2023-03-26T01:07:02.125Z,8.48
2023-03-26T01:08:03.919Z,7.89
2023-03-26T01:09:05.764Z,7.89
2023-03-26T01:10:07.886Z,8.59
2023-03-26T01:11:09.674Z,8.60
2023-03-26T01:12:11.477Z,7.95
2023-03-26T01:13:13.278Z,8.53
2023-03-26T01:14:15.145Z,8.18
2023-03-26T01:15:16.946Z,8.35
2023-03-26T01:16:19.299Z,9.08
2023-03-26T01:17:21.049Z,8.63
2023-03-26T01:18:22.834Z,8.78
2023-03-26T01:19:24.686Z,8.17
2023-03-26T01:20:26.505Z,8.05
2023-03-26T01:21:28.305Z,9.19
2023-03-26T01:22:30.097Z,8.11
2023-03-26T01:23:31.898Z,8.43
2023-03-26T01:24:33.756Z,8.33
2023-03-26T01:25:35.580Z,9.31
2023-03-26T01:26:37.364Z,8.72
2023-03-26T01:27:39.169Z,8.63
2023-03-26T01:28:40.984Z,8.84
2023-03-26T01:29:42.842Z,8.07
2023-03-26T01:30:44.726Z,8.21
2023-03-26T01:31:46.518Z,7.67
2023-03-26T01:32:48.370Z,8.39
2023-03-26T01:33:50.133Z,8.15
2023-03-26T01:34:51.959Z,8.34
2023-03-26T01:35:54.045Z,8.16
2023-03-26T01:36:56.173Z,7.91
2023-03-26T01:37:57.986Z,8.22
2023-03-26T01:39:00.650Z,8.31
2023-03-26T01:40:02.641Z,8.51
2023-03-26T01:41:04.353Z,8.44
2023-03-26T01:42:06.142Z,7.56
2023-03-26T01:43:07.946Z,7.94
2023-03-26T01:44:09.739Z,7.96
2023-03-26T01:45:11.596Z,8.31
2023-03-26T01:46:13.739Z,8.28
2023-03-26T01:47:15.492Z,7.63
2023-03-26T01:48:17.291Z,8.37
2023-03-26T01:49:19.108Z,7.98
2023-03-26T01:50:20.953Z,7.30
2023-03-26T01:51:22.740Z,7.50
2023-03-26T01:52:24.548Z,7.45
2023-03-26T01:53:26.377Z,6.79
2023-03-26T01:54:28.253Z,6.53
2023-03-26T01:55:30.096Z,6.66
2023-03-26T01:56:31.949Z,6.46
2023-03-26T01:57:33.794Z,6.15
2023-03-26T01:58:35.598Z,6.49
2023-03-26T01:59:37.412Z,6.34
2023-03-26T02:00:39.257Z,6.81
2023-03-26T02:01:41.131Z,6.42
2023-03-26T02:02:43.086Z,6.34
2023-03-26T02:03:44.924Z,5.94
2023-03-26T02:04:46.671Z,6.21
2023-03-26T02:05:48.530Z,5.64
2023-03-26T02:06:50.340Z,5.94
2023-03-26T02:07:52.142Z,6.16
2023-03-26T02:08:53.935Z,6.52
2023-03-26T02:09:55.728Z,6.31
2023-03-26T02:10:57.677Z,5.87
2023-03-26T02:11:59.470Z,5.81
2023-03-26T02:13:01.281Z,5.88
2023-03-26T02:14:03.075Z,5.83
2023-03-26T02:15:04.870Z,5.47
2023-03-26T02:16:07.046Z,6.53
2023-03-26T02:17:08.833Z,5.50
2023-03-26T02:18:10.648Z,6.03
2023-03-26T02:19:12.430Z,5.40
2023-03-26T02:20:14.853Z,5.70
2023-03-26T02:21:16.684Z,5.84
2023-03-26T02:22:18.489Z,5.23
2023-03-26T02:23:20.308Z,5.92
2023-03-26T02:24:22.108Z,5.13
2023-03-26T02:25:23.896Z,5.14
2023-03-26T02:26:25.744Z,5.19
2023-03-26T02:27:27.555Z,4.81
2023-03-26T02:28:29.363Z,5.21
2023-03-26T02:29:31.275Z,5.46
2023-03-26T02:30:33.069Z,5.19
2023-03-26T02:31:34.969Z,5.37
2023-03-26T02:32:36.740Z,5.41
2023-03-26T02:33:38.515Z,5.36
2023-03-26T02:34:40.328Z,5.52
2023-03-26T02:35:42.213Z,5.85
2023-03-26T02:36:44.093Z,5.74
2023-03-26T02:37:45.920Z,5.36
2023-03-26T02:38:47.721Z,5.57
2023-03-26T02:39:49.524Z,5.53
2023-03-26T02:40:51.352Z,5.75
2023-03-26T02:41:53.199Z,5.56
2023-03-26T02:42:54.997Z,5.22
2023-03-26T02:43:56.806Z,5.84
2023-03-26T02:44:58.604Z,7.31
2023-03-26T02:46:00.504Z,6.87
2023-03-26T02:47:02.369Z,7.17
2023-03-26T02:48:04.187Z,10.05
2023-03-26T02:49:05.970Z,10.51
2023-03-26T02:50:08.076Z,9.47
2023-03-26T02:51:09.881Z,7.55
2023-03-26T02:52:11.732Z,6.00
2023-03-26T02:53:13.528Z,5.77
2023-03-26T02:54:15.340Z,6.08
2023-03-26T02:55:17.140Z,6.21
2023-03-26T02:56:18.937Z,6.85
2023-03-26T02:57:20.688Z,6.63
2023-03-26T02:58:22.486Z,6.83
2023-03-26T02:59:24.305Z,6.70
2023-03-26T03:00:26.104Z,5.56
2023-03-26T03:01:27.933Z,5.80
2023-03-26T03:02:29.895Z,5.33
2023-03-26T03:03:31.838Z,5.70
2023-03-26T03:04:33.588Z,5.71
2023-03-26T03:05:35.397Z,5.53
2023-03-26T03:06:37.210Z,5.92
2023-03-26T03:07:39.071Z,5.95
2023-03-26T03:08:40.864Z,5.83
2023-03-26T03:09:42.681Z,6.20
2023-03-26T03:10:44.473Z,6.27
2023-03-26T03:11:46.286Z,6.37
2023-03-26T03:12:48.099Z,6.25
2023-03-26T03:13:49.896Z,5.83
2023-03-26T03:14:51.698Z,5.79
2023-03-26T03:15:53.725Z,5.29
2023-03-26T03:16:55.731Z,5.39
2023-03-26T03:17:57.559Z,5.67
2023-03-26T03:18:59.315Z,5.32
2023-03-26T03:20:01.144Z,4.82
2023-03-26T03:21:03.017Z,5.59
2023-03-26T03:22:04.839Z,5.82
2023-03-26T03:23:06.725Z,5.19
2023-03-26T03:24:08.553Z,5.58
2023-03-26T03:25:10.356Z,5.01
2023-03-26T03:26:12.144Z,6.09
2023-03-26T03:27:13.948Z,5.58
2023-03-26T03:28:15.787Z,5.23
2023-03-26T03:29:17.595Z,5.87
2023-03-26T03:30:19.415Z,5.96
2023-03-26T03:31:21.228Z,5.33
2023-03-26T03:32:23.072Z,5.29
2023-03-26T03:33:24.967Z,5.65
2023-03-26T03:34:26.777Z,5.67
2023-03-26T03:35:28.577Z,5.48
2023-03-26T03:36:30.459Z,5.34
2023-03-26T03:37:32.308Z,5.06
2023-03-26T03:38:34.154Z,5.29
2023-03-26T03:39:35.853Z,5.54
2023-03-26T03:40:37.685Z,5.59
2023-03-26T03:41:39.476Z,5.65
2023-03-26T03:42:41.298Z,5.57
2023-03-26T03:43:43.156Z,5.84
2023-03-26T03:44:44.952Z,5.86
2023-03-26T03:45:46.818Z,6.01
2023-03-26T03:46:48.771Z,5.02
2023-03-26T03:47:50.592Z,5.77
2023-03-26T03:48:52.519Z,5.62
2023-03-26T03:49:54.318Z,5.73
2023-03-26T03:50:56.112Z,5.52
2023-03-26T03:51:57.921Z,5.45
2023-03-26T03:52:59.740Z,5.74
2023-03-26T03:54:01.582Z,5.73
2023-03-26T03:55:03.382Z,5.44
2023-03-26T03:56:05.493Z,5.86
2023-03-26T03:57:07.393Z,6.47
2023-03-26T03:58:09.397Z,5.97
2023-03-26T03:59:11.235Z,5.21
2023-03-26T04:00:13.368Z,5.99
2023-03-26T04:01:15.166Z,5.35
2023-03-26T04:02:17.027Z,5.23
2023-03-26T04:03:19.067Z,4.81
2023-03-26T04:04:22.591Z,5.97
2023-03-26T04:05:24.332Z,5.13
2023-03-26T04:06:26.137Z,5.61
2023-03-26T04:07:27.949Z,5.18
2023-03-26T04:08:29.761Z,5.36
2023-03-26T04:09:31.597Z,6.04
2023-03-26T04:10:33.426Z,5.63
2023-03-26T04:11:35.213Z,5.29
2023-03-26T04:12:37.021Z,5.47
2023-03-26T04:13:38.835Z,5.56
2023-03-26T04:14:40.676Z,5.52
2023-03-26T04:15:42.521Z,5.49
2023-03-26T04:16:44.286Z,5.69
2023-03-26T04:17:46.133Z,5.63
2023-03-26T04:18:47.909Z,5.52
2023-03-26T04:19:49.763Z,4.94
2023-03-26T04:20:51.585Z,5.22
2023-03-26T04:21:53.377Z,5.09
2023-03-26T04:22:55.190Z,5.33
2023-03-26T04:23:57.016Z,5.00
2023-03-26T04:24:58.844Z,5.19
2023-03-26T04:26:00.642Z,5.51
2023-03-26T04:27:02.446Z,5.19
2023-03-26T04:28:04.264Z,5.61
2023-03-26T04:29:06.056Z,6.32
2023-03-26T04:30:08.322Z,5.07
2023-03-26T04:31:10.196Z,5.61
2023-03-26T04:32:11.937Z,5.49
2023-03-26T04:33:13.741Z,5.67
2023-03-26T04:34:15.548Z,5.48
2023-03-26T04:35:17.354Z,5.19
2023-03-26T04:36:19.179Z,5.06
2023-03-26T04:37:20.972Z,5.56
2023-03-26T04:38:22.769Z,5.67
2023-03-26T04:39:24.583Z,5.25
2023-03-26T04:40:26.439Z,5.26
2023-03-26T04:41:28.240Z,5.71
2023-03-26T04:42:30.039Z,5.80
2023-03-26T04:43:31.838Z,5.87
2023-03-26T04:44:33.654Z,5.51
2023-03-26T04:45:35.501Z,5.73
2023-03-26T04:46:37.343Z,5.65
2023-03-26T04:47:39.186Z,5.43
2023-03-26T04:48:41.031Z,5.83
2023-03-26T04:49:42.820Z,5.40
2023-03-26T04:50:44.679Z,5.61
2023-03-26T04:51:46.488Z,5.83
2023-03-26T04:52:48.370Z,5.54
2023-03-26T04:53:50.192Z,5.77
2023-03-26T04:54:52.001Z,5.35
2023-03-26T04:55:53.964Z,5.19
2023-03-26T04:56:56.010Z,5.39
2023-03-26T04:57:57.791Z,5.15
2023-03-26T04:58:59.549Z,5.47
2023-03-26T05:00:01.342Z,5.38
2023-03-26T05:01:10.441Z,5.56
2023-03-26T05:02:06.811Z,5.16
2023-03-26T05:03:08.664Z,5.51
2023-03-26T05:04:10.449Z,5.25
2023-03-26T05:05:12.220Z,4.46
2023-03-26T05:06:14.092Z,5.23
2023-03-26T05:07:15.864Z,4.83
2023-03-26T05:08:17.671Z,4.83
2023-03-26T05:09:19.494Z,5.60
2023-03-26T05:10:21.310Z,5.87
2023-03-26T05:11:23.129Z,6.27
2023-03-26T05:12:24.927Z,5.77
2023-03-26T05:13:26.730Z,6.08
2023-03-26T05:14:28.557Z,6.33
2023-03-26T05:15:30.350Z,5.03
2023-03-26T05:16:32.253Z,6.13
2023-03-26T05:17:34.078Z,5.53
2023-03-26T05:18:35.927Z,5.42
2023-03-26T05:19:37.717Z,5.32
2023-03-26T05:20:39.506Z,6.36
2023-03-26T05:21:41.349Z,8.11
2023-03-26T05:22:43.153Z,7.79
2023-03-26T05:23:44.955Z,9.26
2023-03-26T05:24:46.751Z,7.21
2023-03-26T05:25:48.549Z,6.71
2023-03-26T05:26:50.506Z,6.15
2023-03-26T05:27:52.308Z,5.43
2023-03-26T05:28:54.104Z,4.97
2023-03-26T05:29:55.899Z,4.81
2023-03-26T05:30:57.701Z,5.16
2023-03-26T05:31:59.448Z,4.51
2023-03-26T05:33:01.318Z,5.50
2023-03-26T05:34:03.078Z,4.87
2023-03-26T05:35:04.870Z,4.41
2023-03-26T05:36:07.096Z,4.95
2023-03-26T05:37:08.918Z,5.01
2023-03-26T05:38:10.726Z,5.31
2023-03-26T05:39:12.533Z,5.19
2023-03-26T05:40:14.339Z,6.31
2023-03-26T05:41:16.134Z,7.14
2023-03-26T05:42:17.994Z,8.92
2023-03-26T05:43:19.796Z,7.39
2023-03-26T05:44:21.598Z,8.67
2023-03-26T05:45:23.423Z,7.33
2023-03-26T05:46:25.230Z,6.96
2023-03-26T05:47:27.083Z,6.75
2023-03-26T05:48:28.861Z,6.23
2023-03-26T05:49:30.677Z,6.31
2023-03-26T05:50:32.501Z,7.39
2023-03-26T05:51:34.303Z,7.99
2023-03-26T05:52:36.146Z,7.10
2023-03-26T05:53:37.950Z,7.07
2023-03-26T05:54:39.753Z,5.34
2023-03-26T05:55:41.668Z,7.17
2023-03-26T05:56:43.475Z,6.97
2023-03-26T05:57:45.306Z,7.13
2023-03-26T05:58:47.119Z,6.67
2023-03-26T05:59:48.921Z,6.10
2023-03-26T06:00:50.718Z,5.56
2023-03-26T06:01:52.524Z,4.72
2023-03-26T06:02:56.910Z,5.47
2023-03-26T06:03:58.021Z,4.90
2023-03-26T06:04:59.873Z,4.87
2023-03-26T06:06:01.665Z,4.51
2023-03-26T06:07:03.471Z,4.45
2023-03-26T06:08:05.315Z,4.36
2023-03-26T06:09:07.123Z,4.45
2023-03-26T06:10:09.034Z,4.61
2023-03-26T06:11:10.834Z,4.65
2023-03-26T06:12:12.632Z,4.63
2023-03-26T06:13:14.498Z,4.47
2023-03-26T06:14:16.305Z,5.02
2023-03-26T06:15:18.117Z,4.53
2023-03-26T06:16:26.375Z,4.33
2023-03-26T06:17:23.526Z,4.34
2023-03-26T06:18:25.365Z,4.78
2023-03-26T06:19:27.168Z,4.33
2023-03-26T06:20:28.974Z,4.73
2023-03-26T06:21:30.762Z,5.26
2023-03-26T06:22:32.567Z,4.89
2023-03-26T06:23:34.414Z,5.17
2023-03-26T06:24:36.237Z,5.03
2023-03-26T06:25:38.034Z,5.09
2023-03-26T06:26:39.834Z,4.77
2023-03-26T06:27:41.624Z,4.97
2023-03-26T06:28:43.498Z,5.23
2023-03-26T06:29:45.292Z,5.18
2023-03-26T06:30:47.085Z,5.03
2023-03-26T06:31:48.914Z,4.75
2023-03-26T06:32:50.779Z,7.50
2023-03-26T06:33:52.642Z,11.18
2023-03-26T06:34:54.439Z,10.73
2023-03-26T06:35:56.258Z,9.47
2023-03-26T06:36:58.031Z,6.96
2023-03-26T06:37:59.856Z,7.41
2023-03-26T06:39:01.695Z,5.99
2023-03-26T06:40:05.299Z,5.79
2023-03-26T06:41:06.992Z,5.76
2023-03-26T06:42:08.798Z,5.87
2023-03-26T06:43:11.094Z,5.44
2023-03-26T06:44:13.046Z,5.47
2023-03-26T06:45:14.914Z,5.17
2023-03-26T06:46:16.785Z,5.55
2023-03-26T06:47:18.599Z,5.46
2023-03-26T06:48:20.413Z,5.55
2023-03-26T06:49:22.263Z,6.10
2023-03-26T06:50:24.442Z,5.61
2023-03-26T06:51:26.274Z,5.93
2023-03-26T06:52:28.096Z,5.52
2023-03-26T06:53:29.896Z,5.93
2023-03-26T06:54:31.740Z,5.40
2023-03-26T06:55:33.529Z,5.73
2023-03-26T06:56:35.366Z,5.39
2023-03-26T06:57:37.148Z,5.31
2023-03-26T06:58:38.950Z,5.90
2023-03-26T06:59:40.800Z,5.79
2023-03-26T07:00:42.651Z,5.67
2023-03-26T07:01:46.445Z,5.51
2023-03-26T07:02:48.120Z,5.21
2023-03-26T07:03:50.093Z,5.65
2023-03-26T07:04:51.918Z,5.16
2023-03-26T07:05:53.738Z,4.99
2023-03-26T07:06:55.556Z,5.64
2023-03-26T07:07:57.397Z,5.77
2023-03-26T07:08:59.245Z,5.59
2023-03-26T07:10:01.146Z,6.21
2023-03-26T07:11:02.952Z,6.23
2023-03-26T07:12:04.662Z,6.56
2023-03-26T07:13:06.469Z,6.61
2023-03-26T07:14:08.307Z,7.07
2023-03-26T07:15:10.394Z,6.53
2023-03-26T07:16:12.650Z,6.76
2023-03-26T07:17:14.489Z,6.27
2023-03-26T07:18:16.312Z,6.14
2023-03-26T07:19:18.191Z,5.79
2023-03-26T07:20:19.992Z,5.77
2023-03-26T07:21:21.851Z,6.17
2023-03-26T07:22:23.687Z,7.69
2023-03-26T07:23:25.504Z,9.63
2023-03-26T07:24:27.320Z,9.04
2023-03-26T07:25:29.227Z,7.26
2023-03-26T07:26:31.140Z,6.29
2023-03-26T07:27:33.013Z,6.35
2023-03-26T07:28:34.912Z,6.61
2023-03-26T07:29:36.733Z,6.93
2023-03-26T07:30:38.893Z,8.54
2023-03-26T07:31:40.802Z,8.71
2023-03-26T07:32:42.716Z,7.50
2023-03-26T07:33:44.753Z,6.79
2023-03-26T07:34:46.607Z,6.79
2023-03-26T07:35:48.461Z,6.91
2023-03-26T07:36:50.455Z,6.53
2023-03-26T07:37:52.414Z,6.50
2023-03-26T07:38:54.234Z,6.58
2023-03-26T07:39:56.257Z,8.18
2023-03-26T07:40:59.212Z,19.59
2023-03-26T07:42:01.091Z,17.15
2023-03-26T07:43:02.888Z,8.57
2023-03-26T07:44:04.712Z,7.57
2023-03-26T07:45:06.576Z,7.33
2023-03-26T07:46:08.730Z,6.81
2023-03-26T07:47:10.497Z,7.03
2023-03-26T07:48:12.288Z,7.43
2023-03-26T07:49:14.103Z,6.18
2023-03-26T07:50:18.194Z,7.23
2023-03-26T07:51:19.645Z,6.80
2023-03-26T07:52:21.440Z,7.35
2023-03-26T07:53:23.456Z,7.43
2023-03-26T07:54:25.254Z,7.48
2023-03-26T07:55:27.043Z,7.06
2023-03-26T07:56:28.928Z,6.93
2023-03-26T07:57:30.743Z,6.89
2023-03-26T07:58:32.612Z,7.21
2023-03-26T07:59:34.444Z,7.09
2023-03-26T08:00:36.353Z,7.14
2023-03-26T08:01:38.252Z,6.80
2023-03-26T08:02:40.124Z,6.98
2023-03-26T08:03:42.018Z,6.67
2023-03-26T08:04:43.949Z,7.03
2023-03-26T08:05:45.977Z,7.23
2023-03-26T08:06:47.803Z,8.28
2023-03-26T08:07:49.604Z,8.49
2023-03-26T08:08:51.404Z,8.07
2023-03-26T08:09:53.211Z,8.09
2023-03-26T08:10:55.120Z,10.65
2023-03-26T08:11:57.070Z,8.98
2023-03-26T08:12:58.861Z,8.42
2023-03-26T08:14:00.671Z,7.74
2023-03-26T08:15:02.498Z,7.43
2023-03-26T08:16:04.415Z,7.29
2023-03-26T08:17:06.561Z,7.61
2023-03-26T08:18:08.428Z,8.19
2023-03-26T08:19:10.269Z,10.73
2023-03-26T08:20:12.183Z,8.96
2023-03-26T08:21:13.981Z,7.90
2023-03-26T08:22:15.829Z,10.89
2023-03-26T08:23:17.636Z,15.96
2023-03-26T08:24:19.420Z,13.23
2023-03-26T08:25:21.237Z,10.10
2023-03-26T08:26:23.039Z,10.68
2023-03-26T08:27:24.912Z,9.44
2023-03-26T08:28:26.760Z,8.55
2023-03-26T08:29:28.562Z,8.13
2023-03-26T08:30:30.350Z,7.59
2023-03-26T08:31:32.261Z,7.34
2023-03-26T08:32:34.185Z,6.71
2023-03-26T08:33:38.299Z,6.98
2023-03-26T08:34:39.676Z,7.53
2023-03-26T08:35:41.526Z,7.24
2023-03-26T08:36:43.283Z,7.02
2023-03-26T08:37:45.174Z,6.74
2023-03-26T08:38:47.027Z,6.80
2023-03-26T08:39:48.790Z,6.60
2023-03-26T08:40:50.593Z,6.69
2023-03-26T08:41:52.411Z,7.00
2023-03-26T08:42:54.308Z,7.45
2023-03-26T08:43:56.127Z,6.66
2023-03-26T08:44:57.932Z,6.03
2023-03-26T08:45:59.719Z,7.41
2023-03-26T08:47:01.522Z,7.89
2023-03-26T08:48:03.505Z,7.09
2023-03-26T08:49:05.344Z,10.70
2023-03-26T08:50:07.461Z,10.05
2023-03-26T08:51:09.255Z,7.85
2023-03-26T08:52:11.067Z,8.95
2023-03-26T08:53:12.906Z,9.51
2023-03-26T08:54:14.730Z,9.01
2023-03-26T08:55:16.510Z,7.49
2023-03-26T08:56:18.306Z,6.66
2023-03-26T08:57:20.220Z,6.63
2023-03-26T08:58:22.064Z,5.69
2023-03-26T08:59:23.922Z,6.27
2023-03-26T09:00:25.721Z,6.12
2023-03-26T09:01:27.538Z,7.98
2023-03-26T09:02:29.336Z,8.91
2023-03-26T09:03:31.215Z,8.81
2023-03-26T09:04:33.076Z,7.06
2023-03-26T09:05:34.878Z,6.17
2023-03-26T09:06:36.675Z,7.21
2023-03-26T09:07:38.480Z,7.88
2023-03-26T09:08:53.647Z,7.88
2023-03-26T09:09:43.935Z,6.40
2023-03-26T09:10:45.733Z,5.75
2023-03-26T09:11:47.550Z,5.53
2023-03-26T09:12:49.338Z,5.36
2023-03-26T09:13:51.186Z,6.12
2023-03-26T09:14:52.981Z,5.52
2023-03-26T09:15:54.896Z,5.36
2023-03-26T09:16:56.743Z,5.93
2023-03-26T09:17:58.593Z,5.71
2023-03-26T09:19:00.415Z,5.55
2023-03-26T09:20:02.236Z,5.89
2023-03-26T09:21:04.055Z,6.29
2023-03-26T09:22:05.863Z,6.61
2023-03-26T09:23:07.682Z,6.97
2023-03-26T09:24:09.549Z,7.04
2023-03-26T09:25:11.391Z,8.45
2023-03-26T09:26:13.212Z,7.53
2023-03-26T09:27:15.024Z,6.41
2023-03-26T09:28:16.833Z,5.95
2023-03-26T09:29:18.756Z,6.26
2023-03-26T09:30:20.599Z,6.55
2023-03-26T09:31:22.498Z,7.77
2023-03-26T09:32:24.309Z,8.02
2023-03-26T09:33:26.267Z,6.89
2023-03-26T09:34:28.136Z,6.73
2023-03-26T09:35:30.009Z,6.84
2023-03-26T09:36:31.799Z,6.95
2023-03-26T09:37:33.654Z,7.20
2023-03-26T09:38:35.479Z,6.46
2023-03-26T09:39:37.342Z,7.12
2023-03-26T09:40:39.157Z,6.66
2023-03-26T09:41:40.985Z,6.78
2023-03-26T09:42:42.815Z,6.61
2023-03-26T09:43:44.641Z,6.77
2023-03-26T09:44:46.646Z,7.15
2023-03-26T09:45:48.485Z,7.40
2023-03-26T09:46:50.342Z,8.49
2023-03-26T09:47:52.213Z,7.97
2023-03-26T09:48:54.101Z,9.13
2023-03-26T09:49:56.255Z,9.88
2023-03-26T09:50:58.378Z,8.85
2023-03-26T09:52:00.596Z,18.13
2023-03-26T09:53:02.419Z,13.93
2023-03-26T09:54:04.242Z,13.93
2023-03-26T09:55:06.113Z,14.19
2023-03-26T09:56:07.948Z,15.30
2023-03-26T09:57:09.840Z,15.20
2023-03-26T09:58:11.667Z,13.34
2023-03-26T09:59:13.498Z,13.71
2023-03-26T10:00:15.891Z,11.06
2023-03-26T10:01:17.724Z,9.81
2023-03-26T10:02:19.553Z,8.97
2023-03-26T10:03:21.422Z,8.47
2023-03-26T10:04:23.185Z,8.69
2023-03-26T10:05:25.023Z,7.75
2023-03-26T10:06:26.844Z,8.58
2023-03-26T10:07:28.661Z,8.78
2023-03-26T10:08:32.230Z,9.00
2023-03-26T10:09:34.103Z,10.02
2023-03-26T10:10:35.973Z,9.99
2023-03-26T10:11:37.806Z,11.19
2023-03-26T10:12:39.639Z,11.81
2023-03-26T10:13:41.408Z,10.90
2023-03-26T10:14:43.200Z,9.76
2023-03-26T10:15:45.073Z,10.05
2023-03-26T10:16:47.046Z,10.51
2023-03-26T10:17:48.926Z,13.77
2023-03-26T10:18:50.690Z,9.02
2023-03-26T10:19:52.508Z,12.49
2023-03-26T10:20:54.475Z,11.03
2023-03-26T10:21:56.459Z,10.65
2023-03-26T10:22:58.261Z,9.61
2023-03-26T10:24:00.117Z,8.13
2023-03-26T10:25:01.920Z,6.83
2023-03-26T10:26:03.796Z,6.84
2023-03-26T10:27:08.456Z,8.11
2023-03-26T10:28:09.233Z,8.58
2023-03-26T10:29:11.070Z,10.55
2023-03-26T10:30:12.990Z,17.12
2023-03-26T10:31:14.892Z,17.54
2023-03-26T10:32:16.656Z,13.71
2023-03-26T10:33:18.408Z,12.61
2023-03-26T10:34:29.322Z,10.54
2023-03-26T10:35:23.864Z,32.88
2023-03-26T10:36:25.713Z,29.26
2023-03-26T10:37:27.520Z,17.89
2023-03-26T10:38:29.341Z,15.15
2023-03-26T10:39:36.625Z,14.65
2023-03-26T10:40:34.817Z,15.52
2023-03-26T10:41:36.686Z,14.21
2023-03-26T10:42:38.509Z,13.91
2023-03-26T10:43:40.307Z,13.67
2023-03-26T10:44:42.133Z,12.92
2023-03-26T10:45:43.981Z,12.35
2023-03-26T10:46:45.842Z,9.10
2023-03-26T10:47:47.693Z,7.77
2023-03-26T10:48:49.472Z,7.97
2023-03-26T10:49:51.295Z,11.31
2023-03-26T10:50:53.372Z,13.40
2023-03-26T10:51:55.355Z,14.33
2023-03-26T10:52:57.181Z,14.04
2023-03-26T10:53:58.992Z,13.83
2023-03-26T10:55:00.805Z,16.77
2023-03-26T10:56:02.613Z,16.58
2023-03-26T10:57:04.547Z,13.91
2023-03-26T10:58:06.421Z,12.14
2023-03-26T10:59:08.234Z,11.19
2023-03-26T11:00:10.123Z,11.39
2023-03-26T11:01:11.967Z,10.71
2023-03-26T11:02:13.795Z,10.51
2023-03-26T11:03:15.610Z,10.67
2023-03-26T11:04:17.482Z,10.28
2023-03-26T11:05:19.307Z,9.59
2023-03-26T11:06:21.203Z,10.69
2023-03-26T11:07:23.067Z,11.75
2023-03-26T11:08:31.675Z,14.44
2023-03-26T11:09:28.479Z,17.57
2023-03-26T11:10:30.284Z,18.35
2023-03-26T11:11:32.108Z,21.75
2023-03-26T11:12:33.935Z,22.15
2023-03-26T11:13:35.804Z,19.88
2023-03-26T11:14:37.600Z,15.57
2023-03-26T11:15:39.469Z,15.58
2023-03-26T11:16:41.226Z,19.28
2023-03-26T11:17:43.108Z,14.94
2023-03-26T11:18:44.898Z,14.33
2023-03-26T11:19:46.803Z,14.70
2023-03-26T11:20:48.594Z,14.85
2023-03-26T11:21:50.407Z,12.61
2023-03-26T11:22:52.255Z,13.97
2023-03-26T11:24:04.676Z,15.75
2023-03-26T11:24:57.712Z,12.91
2023-03-26T11:25:59.531Z,10.25
2023-03-26T11:27:15.543Z,9.94
2023-03-26T11:28:05.002Z,9.18
2023-03-26T11:29:30.956Z,16.94
2023-03-26T11:30:10.801Z,32.60
2023-03-26T11:31:12.737Z,37.85
2023-03-26T11:32:14.489Z,36.07
2023-03-26T11:33:16.428Z,31.21
2023-03-26T11:34:18.758Z,18.75
2023-03-26T11:35:42.460Z,12.26
2023-03-26T11:36:26.002Z,11.21
2023-03-26T11:37:27.860Z,11.11
2023-03-26T11:38:29.716Z,16.80
2023-03-26T11:39:31.581Z,21.39
2023-03-26T11:40:33.355Z,15.21
2023-03-26T11:41:35.138Z,13.85
2023-03-26T11:42:36.931Z,13.61
2023-03-26T11:43:38.769Z,20.41
2023-03-26T11:44:40.568Z,19.65
2023-03-26T11:45:42.350Z,17.34
2023-03-26T11:46:44.279Z,19.81
2023-03-26T11:47:46.064Z,20.82
2023-03-26T11:48:47.864Z,23.58
2023-03-26T11:49:49.941Z,20.46
2023-03-26T11:50:51.870Z,14.36
2023-03-26T11:51:56.036Z,12.04
2023-03-26T11:52:57.871Z,14.49
2023-03-26T11:53:59.706Z,16.34
2023-03-26T11:55:01.504Z,16.62
2023-03-26T11:56:03.313Z,16.93
2023-03-26T11:57:07.277Z,13.66
2023-03-26T11:58:09.743Z,13.51
2023-03-26T11:59:12.331Z,14.32
2023-03-26T12:00:14.404Z,16.53
2023-03-26T12:01:16.196Z,14.08
2023-03-26T12:02:18.012Z,14.27
2023-03-26T12:03:19.829Z,13.97
2023-03-26T12:04:21.626Z,12.55
2023-03-26T12:05:23.398Z,12.49
2023-03-26T12:06:25.196Z,12.43
2023-03-26T12:07:27.019Z,11.92
2023-03-26T12:08:28.830Z,11.48
2023-03-26T12:09:30.667Z,17.58
2023-03-26T12:10:32.439Z,19.98
2023-03-26T12:11:35.273Z,22.51
2023-03-26T12:12:37.443Z,28.07
2023-03-26T12:13:39.260Z,27.15
2023-03-26T12:14:41.075Z,30.77
2023-03-26T12:15:42.936Z,30.79
2023-03-26T12:16:44.756Z,28.45
2023-03-26T12:17:46.554Z,21.36
2023-03-26T12:18:48.321Z,16.71
2023-03-26T12:19:50.154Z,18.86
2023-03-26T12:20:52.001Z,20.43
2023-03-26T12:21:53.737Z,16.49
2023-03-26T12:22:55.524Z,13.29
2023-03-26T12:23:57.304Z,11.99
2023-03-26T12:24:59.137Z,9.66
2023-03-26T12:26:00.988Z,9.23
2023-03-26T12:27:02.849Z,10.32
2023-03-26T12:28:04.648Z,11.52
2023-03-26T12:29:06.422Z,11.47
2023-03-26T12:30:08.353Z,10.60
2023-03-26T12:31:10.143Z,10.18
2023-03-26T12:32:11.940Z,10.01
2023-03-26T12:33:13.754Z,10.52
2023-03-26T12:34:15.524Z,10.13
2023-03-26T12:35:17.402Z,10.91
2023-03-26T12:36:19.205Z,12.06
2023-03-26T12:37:20.983Z,14.01
2023-03-26T12:38:22.793Z,13.19
2023-03-26T12:40:09.079Z,13.25
2023-03-26T12:40:28.266Z,13.62
2023-03-26T12:44:44.650Z,16.32
2023-03-26T12:44:51.154Z,16.97
2023-03-26T12:44:51.384Z,18.82
2023-03-26T12:44:52.874Z,19.21
2023-03-26T12:45:44.567Z,17.25
2023-03-26T12:47:58.450Z,14.71
2023-03-26T12:48:01.247Z,13.98
2023-03-26T12:48:53.665Z,12.45
2023-03-26T12:49:55.610Z,13.15
2023-03-26T12:50:57.779Z,13.93
2023-03-26T12:51:59.837Z,13.59
2023-03-26T12:53:01.670Z,12.09
2023-03-26T12:54:03.465Z,12.99
2023-03-26T12:55:12.032Z,13.32
2023-03-26T12:56:09.467Z,13.78
2023-03-26T12:57:13.271Z,12.26
2023-03-26T12:58:14.950Z,12.58
2023-03-26T12:59:16.724Z,12.28
2023-03-26T13:00:18.528Z,12.72
2023-03-26T13:01:21.404Z,13.17
2023-03-26T13:02:23.335Z,12.91
2023-03-26T13:03:25.210Z,14.78
2023-03-26T13:04:27.070Z,17.31
2023-03-26T13:05:28.855Z,15.96
2023-03-26T13:06:30.700Z,14.36
2023-03-26T13:07:32.480Z,12.91
2023-03-26T13:08:34.277Z,12.61
2023-03-26T13:09:36.084Z,11.54
2023-03-26T13:10:37.888Z,11.28
2023-03-26T13:11:39.710Z,10.92
2023-03-26T13:12:41.495Z,11.26
2023-03-26T13:13:43.290Z,11.33
2023-03-26T13:14:44.978Z,11.74
2023-03-26T13:15:46.852Z,10.89
2023-03-26T13:16:48.775Z,13.19
2023-03-26T13:17:50.666Z,13.79
2023-03-26T13:18:52.308Z,12.62
2023-03-26T13:19:54.091Z,12.80
2023-03-26T13:20:56.174Z,12.65
2023-03-26T13:21:58.274Z,11.60
2023-03-26T13:23:00.167Z,12.04
2023-03-26T13:24:01.950Z,12.05
2023-03-26T13:25:03.752Z,11.93
2023-03-26T13:26:05.572Z,13.12
2023-03-26T13:27:07.493Z,14.05
2023-03-26T13:28:09.299Z,14.85
2023-03-26T13:29:11.104Z,13.77
2023-03-26T13:30:12.894Z,13.87
2023-03-26T13:31:14.726Z,14.02
2023-03-26T13:32:16.540Z,17.43
2023-03-26T13:33:18.353Z,21.17
2023-03-26T13:34:20.141Z,17.90
2023-03-26T13:35:22.030Z,17.53
2023-03-26T13:36:24.995Z,19.85